Terminal Aerodrome Forecast
Issued by NWS Jacksonville, FL

Home | Current Version | Previous Version | Text Only | Print | Product List | Glossary On
Versions: 1 2 3 4 5 6 7 8 9 10 11 12 13 14
000
FTUS42 KJAX 221720
TAFSSI
TAF
KSSI 221720Z 2218/2318 06012G18KT P6SM BKN035
     FM230100 06010KT P6SM SCT030 SCT100 BKN200
     FM231400 06014G21KT P6SM SCT020 SCT040=

USA.gov is the U.S. government's official web portal to all federal, state and local government web resources and services.